sensor_id;sensor_type;location;lat;lon;timestamp;P1;durP1;ratioP1;P2;durP2;ratioP2
80127;SDS011;69440;52.118;5.408;2023-05-10T00:02:23;26.92;;;12.77;;
80127;SDS011;69440;52.118;5.408;2023-05-10T00:04:50;26.30;;;13.43;;
80127;SDS011;69440;52.118;5.408;2023-05-10T00:07:17;29.38;;;14.15;;
80127;SDS011;69440;52.118;5.408;2023-05-10T00:09:43;29.52;;;13.95;;
80127;SDS011;69440;52.118;5.408;2023-05-10T00:12:10;32.53;;;15.25;;
80127;SDS011;69440;52.118;5.408;2023-05-10T00:14:36;27.52;;;14.10;;
80127;SDS011;69440;52.118;5.408;2023-05-10T00:17:03;32.60;;;14.73;;
80127;SDS011;69440;52.118;5.408;2023-05-10T00:19:29;30.90;;;14.70;;
80127;SDS011;69440;52.118;5.408;2023-05-10T00:21:56;35.42;;;17.40;;
80127;SDS011;69440;52.118;5.408;2023-05-10T00:24:22;32.67;;;14.70;;
80127;SDS011;69440;52.118;5.408;2023-05-10T00:26:48;31.95;;;15.25;;
80127;SDS011;69440;52.118;5.408;2023-05-10T00:29:15;32.30;;;15.98;;
80127;SDS011;69440;52.118;5.408;2023-05-10T00:31:41;37.53;;;16.17;;
80127;SDS011;69440;52.118;5.408;2023-05-10T00:34:08;33.67;;;15.70;;
80127;SDS011;69440;52.118;5.408;2023-05-10T00:36:34;34.47;;;15.90;;
80127;SDS011;69440;52.118;5.408;2023-05-10T00:39:01;35.55;;;16.63;;
80127;SDS011;69440;52.118;5.408;2023-05-10T00:41:29;40.38;;;17.90;;
80127;SDS011;69440;52.118;5.408;2023-05-10T00:43:58;38.33;;;18.02;;
80127;SDS011;69440;52.118;5.408;2023-05-10T00:46:25;46.30;;;18.60;;
80127;SDS011;69440;52.118;5.408;2023-05-10T00:48:52;41.00;;;19.17;;
80127;SDS011;69440;52.118;5.408;2023-05-10T00:51:18;40.65;;;19.42;;
80127;SDS011;69440;52.118;5.408;2023-05-10T00:53:45;47.65;;;19.73;;
80127;SDS011;69440;52.118;5.408;2023-05-10T00:56:12;45.17;;;19.45;;
80127;SDS011;69440;52.118;5.408;2023-05-10T00:58:39;42.35;;;17.35;;
80127;SDS011;69440;52.118;5.408;2023-05-10T01:01:05;47.13;;;19.08;;
80127;SDS011;69440;52.118;5.408;2023-05-10T01:03:33;43.38;;;19.25;;
80127;SDS011;69440;52.118;5.408;2023-05-10T01:06:00;48.33;;;18.77;;
80127;SDS011;69440;52.118;5.408;2023-05-10T01:08:27;43.08;;;19.92;;
80127;SDS011;69440;52.118;5.408;2023-05-10T01:10:55;43.15;;;18.48;;
80127;SDS011;69440;52.118;5.408;2023-05-10T01:16:02;41.03;;;18.77;;
80127;SDS011;69440;52.118;5.408;2023-05-10T01:18:29;45.85;;;20.20;;
80127;SDS011;69440;52.118;5.408;2023-05-10T01:21:03;44.72;;;18.50;;
80127;SDS011;69440;52.118;5.408;2023-05-10T01:34:53;46.67;;;19.17;;
80127;SDS011;69440;52.118;5.408;2023-05-10T01:37:30;46.47;;;19.60;;
80127;SDS011;69440;52.118;5.408;2023-05-10T01:40:14;48.15;;;19.13;;
80127;SDS011;69440;52.118;5.408;2023-05-10T01:43:28;41.78;;;17.25;;
80127;SDS011;69440;52.118;5.408;2023-05-10T01:45:57;47.38;;;18.30;;
80127;SDS011;69440;52.118;5.408;2023-05-10T01:48:30;47.13;;;17.67;;
80127;SDS011;69440;52.118;5.408;2023-05-10T01:50:58;43.97;;;18.70;;
80127;SDS011;69440;52.118;5.408;2023-05-10T01:53:24;46.63;;;19.27;;
80127;SDS011;69440;52.118;5.408;2023-05-10T01:55:52;49.72;;;19.40;;
80127;SDS011;69440;52.118;5.408;2023-05-10T01:58:25;49.33;;;19.88;;
80127;SDS011;69440;52.118;5.408;2023-05-10T02:00:56;44.72;;;18.25;;
80127;SDS011;69440;52.118;5.408;2023-05-10T02:03:26;47.08;;;19.95;;
80127;SDS011;69440;52.118;5.408;2023-05-10T02:05:54;46.97;;;19.10;;
80127;SDS011;69440;52.118;5.408;2023-05-10T02:08:23;46.83;;;18.75;;
80127;SDS011;69440;52.118;5.408;2023-05-10T02:10:51;49.17;;;19.35;;
80127;SDS011;69440;52.118;5.408;2023-05-10T02:13:20;51.95;;;19.95;;
80127;SDS011;69440;52.118;5.408;2023-05-10T02:15:49;51.30;;;20.23;;
80127;SDS011;69440;52.118;5.408;2023-05-10T02:18:17;50.50;;;20.33;;
80127;SDS011;69440;52.118;5.408;2023-05-10T02:20:45;48.47;;;20.23;;
80127;SDS011;69440;52.118;5.408;2023-05-10T02:23:13;51.92;;;18.80;;
80127;SDS011;69440;52.118;5.408;2023-05-10T02:25:43;51.35;;;19.92;;
80127;SDS011;69440;52.118;5.408;2023-05-10T02:28:10;48.58;;;18.55;;
80127;SDS011;69440;52.118;5.408;2023-05-10T02:30:39;42.45;;;17.63;;
80127;SDS011;69440;52.118;5.408;2023-05-10T02:33:06;51.67;;;20.00;;
80127;SDS011;69440;52.118;5.408;2023-05-10T02:35:33;45.65;;;17.88;;
80127;SDS011;69440;52.118;5.408;2023-05-10T02:38:01;48.90;;;18.77;;
80127;SDS011;69440;52.118;5.408;2023-05-10T02:40:28;49.38;;;18.48;;
80127;SDS011;69440;52.118;5.408;2023-05-10T02:42:56;48.90;;;20.05;;
80127;SDS011;69440;52.118;5.408;2023-05-10T02:45:26;53.35;;;19.95;;
80127;SDS011;69440;52.118;5.408;2023-05-10T02:47:55;49.55;;;19.67;;
80127;SDS011;69440;52.118;5.408;2023-05-10T02:50:22;56.08;;;20.85;;
80127;SDS011;69440;52.118;5.408;2023-05-10T02:52:54;48.88;;;20.65;;
80127;SDS011;69440;52.118;5.408;2023-05-10T02:55:26;51.85;;;19.48;;
80127;SDS011;69440;52.118;5.408;2023-05-10T02:57:59;52.28;;;21.27;;
80127;SDS011;69440;52.118;5.408;2023-05-10T03:00:27;48.03;;;19.67;;
80127;SDS011;69440;52.118;5.408;2023-05-10T03:02:53;56.83;;;21.33;;
80127;SDS011;69440;52.118;5.408;2023-05-10T03:05:20;59.97;;;22.42;;
80127;SDS011;69440;52.118;5.408;2023-05-10T03:07:46;64.50;;;23.33;;
80127;SDS011;69440;52.118;5.408;2023-05-10T03:10:13;63.40;;;23.15;;
80127;SDS011;69440;52.118;5.408;2023-05-10T03:12:47;55.08;;;20.35;;
80127;SDS011;69440;52.118;5.408;2023-05-10T03:18:21;63.10;;;20.25;;
80127;SDS011;69440;52.118;5.408;2023-05-10T03:20:49;67.32;;;21.63;;
80127;SDS011;69440;52.118;5.408;2023-05-10T03:23:21;62.13;;;20.25;;
80127;SDS011;69440;52.118;5.408;2023-05-10T03:25:56;62.17;;;20.88;;
80127;SDS011;69440;52.118;5.408;2023-05-10T03:28:23;71.00;;;22.85;;
80127;SDS011;69440;52.118;5.408;2023-05-10T03:30:52;62.42;;;21.30;;
80127;SDS011;69440;52.118;5.408;2023-05-10T03:33:20;67.32;;;20.67;;
80127;SDS011;69440;52.118;5.408;2023-05-10T03:35:47;64.43;;;22.83;;
80127;SDS011;69440;52.118;5.408;2023-05-10T03:38:13;69.30;;;20.85;;
80127;SDS011;69440;52.118;5.408;2023-05-10T03:40:40;68.00;;;21.27;;
80127;SDS011;69440;52.118;5.408;2023-05-10T03:43:06;62.33;;;19.73;;
80127;SDS011;69440;52.118;5.408;2023-05-10T03:45:33;62.72;;;20.92;;
80127;SDS011;69440;52.118;5.408;2023-05-10T03:47:59;70.82;;;23.55;;
80127;SDS011;69440;52.118;5.408;2023-05-10T03:50:26;68.47;;;22.35;;
80127;SDS011;69440;52.118;5.408;2023-05-10T03:52:52;68.25;;;22.88;;
80127;SDS011;69440;52.118;5.408;2023-05-10T03:55:20;69.00;;;22.83;;
80127;SDS011;69440;52.118;5.408;2023-05-10T03:57:46;65.50;;;21.92;;
80127;SDS011;69440;52.118;5.408;2023-05-10T04:00:15;68.55;;;21.15;;
80127;SDS011;69440;52.118;5.408;2023-05-10T04:02:42;64.95;;;20.83;;
80127;SDS011;69440;52.118;5.408;2023-05-10T04:05:11;61.70;;;21.30;;
80127;SDS011;69440;52.118;5.408;2023-05-10T04:07:38;61.80;;;20.83;;
80127;SDS011;69440;52.118;5.408;2023-05-10T04:10:04;62.65;;;20.17;;
80127;SDS011;69440;52.118;5.408;2023-05-10T04:12:31;60.78;;;21.38;;
80127;SDS011;69440;52.118;5.408;2023-05-10T04:14:58;58.05;;;19.23;;
80127;SDS011;69440;52.118;5.408;2023-05-10T04:17:24;54.50;;;20.00;;
80127;SDS011;69440;52.118;5.408;2023-05-10T04:19:51;58.92;;;19.42;;
80127;SDS011;69440;52.118;5.408;2023-05-10T04:22:20;61.58;;;19.33;;
80127;SDS011;69440;52.118;5.408;2023-05-10T04:24:46;54.65;;;18.63;;
80127;SDS011;69440;52.118;5.408;2023-05-10T04:27:13;57.95;;;19.98;;
80127;SDS011;69440;52.118;5.408;2023-05-10T04:29:39;57.42;;;19.73;;
80127;SDS011;69440;52.118;5.408;2023-05-10T04:32:06;63.78;;;20.73;;
80127;SDS011;69440;52.118;5.408;2023-05-10T04:34:32;56.25;;;17.98;;
80127;SDS011;69440;52.118;5.408;2023-05-10T04:37:00;55.83;;;19.55;;
80127;SDS011;69440;52.118;5.408;2023-05-10T04:39:26;55.95;;;18.55;;
80127;SDS011;69440;52.118;5.408;2023-05-10T04:41:53;57.92;;;19.42;;
80127;SDS011;69440;52.118;5.408;2023-05-10T04:44:19;57.53;;;19.13;;
80127;SDS011;69440;52.118;5.408;2023-05-10T04:46:45;56.90;;;19.58;;
80127;SDS011;69440;52.118;5.408;2023-05-10T04:49:12;62.70;;;19.23;;
80127;SDS011;69440;52.118;5.408;2023-05-10T04:51:38;52.75;;;19.25;;
80127;SDS011;69440;52.118;5.408;2023-05-10T04:54:05;60.63;;;20.92;;
80127;SDS011;69440;52.118;5.408;2023-05-10T04:56:32;59.85;;;18.55;;
80127;SDS011;69440;52.118;5.408;2023-05-10T04:58:58;55.75;;;20.27;;
80127;SDS011;69440;52.118;5.408;2023-05-10T05:01:25;57.42;;;20.90;;
80127;SDS011;69440;52.118;5.408;2023-05-10T05:03:51;59.00;;;20.77;;
80127;SDS011;69440;52.118;5.408;2023-05-10T05:06:19;62.25;;;19.38;;
80127;SDS011;69440;52.118;5.408;2023-05-10T05:08:47;60.60;;;20.60;;
80127;SDS011;69440;52.118;5.408;2023-05-10T05:11:15;58.70;;;20.50;;
80127;SDS011;69440;52.118;5.408;2023-05-10T05:13:42;56.60;;;21.15;;
80127;SDS011;69440;52.118;5.408;2023-05-10T05:16:18;65.25;;;19.30;;
80127;SDS011;69440;52.118;5.408;2023-05-10T05:18:44;60.90;;;20.20;;
80127;SDS011;69440;52.118;5.408;2023-05-10T05:21:16;57.50;;;18.63;;
80127;SDS011;69440;52.118;5.408;2023-05-10T05:23:44;63.90;;;19.77;;
80127;SDS011;69440;52.118;5.408;2023-05-10T05:26:10;53.45;;;20.88;;
80127;SDS011;69440;52.118;5.408;2023-05-10T05:28:37;57.88;;;20.75;;
80127;SDS011;69440;52.118;5.408;2023-05-10T05:31:06;54.65;;;18.27;;
80127;SDS011;69440;52.118;5.408;2023-05-10T05:33:34;62.97;;;20.08;;
80127;SDS011;69440;52.118;5.408;2023-05-10T05:36:01;56.85;;;20.65;;
80127;SDS011;69440;52.118;5.408;2023-05-10T05:38:28;61.97;;;20.35;;
80127;SDS011;69440;52.118;5.408;2023-05-10T05:40:55;63.78;;;20.23;;
80127;SDS011;69440;52.118;5.408;2023-05-10T05:43:21;64.38;;;23.33;;
80127;SDS011;69440;52.118;5.408;2023-05-10T05:45:48;61.67;;;20.90;;
80127;SDS011;69440;52.118;5.408;2023-05-10T05:48:15;63.95;;;21.73;;
80127;SDS011;69440;52.118;5.408;2023-05-10T05:50:41;53.80;;;20.50;;
80127;SDS011;69440;52.118;5.408;2023-05-10T05:53:08;53.85;;;19.35;;
80127;SDS011;69440;52.118;5.408;2023-05-10T05:55:35;62.78;;;23.80;;
80127;SDS011;69440;52.118;5.408;2023-05-10T05:58:01;64.10;;;22.08;;
80127;SDS011;69440;52.118;5.408;2023-05-10T06:00:27;49.40;;;19.80;;
80127;SDS011;69440;52.118;5.408;2023-05-10T06:02:54;57.30;;;18.55;;
80127;SDS011;69440;52.118;5.408;2023-05-10T06:05:21;51.22;;;19.33;;
80127;SDS011;69440;52.118;5.408;2023-05-10T06:07:47;48.58;;;19.02;;
80127;SDS011;69440;52.118;5.408;2023-05-10T06:10:14;49.63;;;19.77;;
80127;SDS011;69440;52.118;5.408;2023-05-10T06:12:40;47.17;;;18.35;;
80127;SDS011;69440;52.118;5.408;2023-05-10T06:15:07;44.45;;;18.58;;
80127;SDS011;69440;52.118;5.408;2023-05-10T06:17:34;52.20;;;20.65;;
80127;SDS011;69440;52.118;5.408;2023-05-10T06:20:00;43.35;;;18.02;;
80127;SDS011;69440;52.118;5.408;2023-05-10T06:22:27;48.47;;;19.55;;
80127;SDS011;69440;52.118;5.408;2023-05-10T06:24:53;44.38;;;18.38;;
80127;SDS011;69440;52.118;5.408;2023-05-10T06:27:19;49.08;;;19.17;;
80127;SDS011;69440;52.118;5.408;2023-05-10T06:29:46;43.35;;;16.52;;
80127;SDS011;69440;52.118;5.408;2023-05-10T06:32:15;42.15;;;16.90;;
80127;SDS011;69440;52.118;5.408;2023-05-10T06:34:41;40.08;;;17.23;;
80127;SDS011;69440;52.118;5.408;2023-05-10T06:37:09;43.60;;;17.35;;
80127;SDS011;69440;52.118;5.408;2023-05-10T06:39:35;45.15;;;17.60;;
80127;SDS011;69440;52.118;5.408;2023-05-10T06:42:02;41.83;;;16.85;;
80127;SDS011;69440;52.118;5.408;2023-05-10T06:44:30;38.85;;;15.82;;
80127;SDS011;69440;52.118;5.408;2023-05-10T06:46:57;37.75;;;15.57;;
80127;SDS011;69440;52.118;5.408;2023-05-10T06:49:23;37.72;;;14.38;;
80127;SDS011;69440;52.118;5.408;2023-05-10T06:51:49;35.08;;;14.85;;
80127;SDS011;69440;52.118;5.408;2023-05-10T06:54:16;35.65;;;13.75;;
80127;SDS011;69440;52.118;5.408;2023-05-10T06:56:42;34.53;;;13.38;;
80127;SDS011;69440;52.118;5.408;2023-05-10T06:59:09;32.72;;;13.13;;
80127;SDS011;69440;52.118;5.408;2023-05-10T07:01:35;32.15;;;14.10;;
80127;SDS011;69440;52.118;5.408;2023-05-10T07:04:02;31.38;;;13.48;;
80127;SDS011;69440;52.118;5.408;2023-05-10T07:06:28;29.05;;;12.55;;
80127;SDS011;69440;52.118;5.408;2023-05-10T07:11:27;30.88;;;11.38;;
80127;SDS011;69440;52.118;5.408;2023-05-10T07:13:53;22.52;;;9.48;;
80127;SDS011;69440;52.118;5.408;2023-05-10T07:16:20;21.45;;;9.63;;
80127;SDS011;69440;52.118;5.408;2023-05-10T07:18:49;17.88;;;8.68;;
80127;SDS011;69440;52.118;5.408;2023-05-10T07:21:16;18.80;;;8.18;;
80127;SDS011;69440;52.118;5.408;2023-05-10T07:23:43;19.13;;;9.25;;
80127;SDS011;69440;52.118;5.408;2023-05-10T07:26:10;17.98;;;8.57;;
80127;SDS011;69440;52.118;5.408;2023-05-10T07:28:37;15.98;;;7.25;;
80127;SDS011;69440;52.118;5.408;2023-05-10T07:31:05;15.13;;;6.82;;
80127;SDS011;69440;52.118;5.408;2023-05-10T07:33:31;16.80;;;8.45;;
80127;SDS011;69440;52.118;5.408;2023-05-10T07:35:58;14.25;;;7.82;;
80127;SDS011;69440;52.118;5.408;2023-05-10T07:38:24;17.67;;;7.93;;
80127;SDS011;69440;52.118;5.408;2023-05-10T07:40:51;15.80;;;7.80;;
80127;SDS011;69440;52.118;5.408;2023-05-10T07:43:17;17.30;;;8.43;;
80127;SDS011;69440;52.118;5.408;2023-05-10T07:45:44;18.02;;;7.35;;
80127;SDS011;69440;52.118;5.408;2023-05-10T07:48:10;15.05;;;7.35;;
80127;SDS011;69440;52.118;5.408;2023-05-10T07:50:37;15.20;;;6.55;;
80127;SDS011;69440;52.118;5.408;2023-05-10T07:53:03;15.20;;;7.25;;
80127;SDS011;69440;52.118;5.408;2023-05-10T07:55:29;15.52;;;7.18;;
80127;SDS011;69440;52.118;5.408;2023-05-10T07:57:56;16.30;;;7.10;;
80127;SDS011;69440;52.118;5.408;2023-05-10T08:00:22;13.50;;;6.60;;
80127;SDS011;69440;52.118;5.408;2023-05-10T08:02:49;15.38;;;7.10;;
80127;SDS011;69440;52.118;5.408;2023-05-10T08:05:15;15.30;;;7.40;;
80127;SDS011;69440;52.118;5.408;2023-05-10T08:07:42;18.00;;;8.00;;
80127;SDS011;69440;52.118;5.408;2023-05-10T08:10:09;11.95;;;7.00;;
80127;SDS011;69440;52.118;5.408;2023-05-10T08:12:39;16.48;;;6.78;;
80127;SDS011;69440;52.118;5.408;2023-05-10T08:15:06;13.18;;;7.93;;
80127;SDS011;69440;52.118;5.408;2023-05-10T08:17:35;18.08;;;7.55;;
80127;SDS011;69440;52.118;5.408;2023-05-10T08:20:02;16.75;;;7.82;;
80127;SDS011;69440;52.118;5.408;2023-05-10T08:22:28;14.55;;;7.43;;
80127;SDS011;69440;52.118;5.408;2023-05-10T08:24:55;17.67;;;7.72;;
80127;SDS011;69440;52.118;5.408;2023-05-10T08:27:21;17.20;;;8.32;;
80127;SDS011;69440;52.118;5.408;2023-05-10T08:29:47;15.95;;;7.93;;
80127;SDS011;69440;52.118;5.408;2023-05-10T08:32:15;14.88;;;7.38;;
80127;SDS011;69440;52.118;5.408;2023-05-10T08:34:42;17.65;;;8.70;;
80127;SDS011;69440;52.118;5.408;2023-05-10T08:37:09;15.77;;;8.25;;
80127;SDS011;69440;52.118;5.408;2023-05-10T08:39:38;17.02;;;8.15;;
80127;SDS011;69440;52.118;5.408;2023-05-10T08:42:05;17.25;;;7.72;;
80127;SDS011;69440;52.118;5.408;2023-05-10T08:44:32;19.23;;;9.18;;
80127;SDS011;69440;52.118;5.408;2023-05-10T08:47:02;17.80;;;8.52;;
80127;SDS011;69440;52.118;5.408;2023-05-10T08:49:31;14.02;;;8.05;;
80127;SDS011;69440;52.118;5.408;2023-05-10T08:51:59;16.80;;;8.63;;
80127;SDS011;69440;52.118;5.408;2023-05-10T08:54:33;19.75;;;8.63;;
80127;SDS011;69440;52.118;5.408;2023-05-10T08:57:00;16.88;;;8.63;;
80127;SDS011;69440;52.118;5.408;2023-05-10T08:59:27;16.40;;;8.93;;
80127;SDS011;69440;52.118;5.408;2023-05-10T09:01:55;17.27;;;8.40;;
80127;SDS011;69440;52.118;5.408;2023-05-10T09:04:24;18.45;;;9.57;;
80127;SDS011;69440;52.118;5.408;2023-05-10T09:06:51;15.85;;;8.07;;
80127;SDS011;69440;52.118;5.408;2023-05-10T09:09:18;17.05;;;9.18;;
80127;SDS011;69440;52.118;5.408;2023-05-10T09:11:45;16.08;;;8.52;;
80127;SDS011;69440;52.118;5.408;2023-05-10T09:14:12;13.60;;;7.22;;
80127;SDS011;69440;52.118;5.408;2023-05-10T09:16:39;12.68;;;6.72;;
80127;SDS011;69440;52.118;5.408;2023-05-10T09:19:06;12.80;;;6.97;;
80127;SDS011;69440;52.118;5.408;2023-05-10T09:21:35;13.23;;;6.97;;
80127;SDS011;69440;52.118;5.408;2023-05-10T09:24:05;12.30;;;6.35;;
80127;SDS011;69440;52.118;5.408;2023-05-10T09:26:32;11.70;;;6.93;;
80127;SDS011;69440;52.118;5.408;2023-05-10T09:28:59;10.07;;;5.80;;
80127;SDS011;69440;52.118;5.408;2023-05-10T09:31:46;13.05;;;6.40;;
80127;SDS011;69440;52.118;5.408;2023-05-10T09:34:17;8.32;;;5.20;;
80127;SDS011;69440;52.118;5.408;2023-05-10T09:36:51;9.32;;;5.70;;
80127;SDS011;69440;52.118;5.408;2023-05-10T09:39:35;10.10;;;5.07;;
80127;SDS011;69440;52.118;5.408;2023-05-10T09:42:06;7.95;;;4.75;;
80127;SDS011;69440;52.118;5.408;2023-05-10T09:44:34;9.18;;;5.15;;
80127;SDS011;69440;52.118;5.408;2023-05-10T09:47:02;7.88;;;5.10;;
80127;SDS011;69440;52.118;5.408;2023-05-10T09:49:29;8.30;;;4.97;;
80127;SDS011;69440;52.118;5.408;2023-05-10T09:52:00;7.10;;;4.40;;
80127;SDS011;69440;52.118;5.408;2023-05-10T09:54:28;10.13;;;5.55;;
80127;SDS011;69440;52.118;5.408;2023-05-10T09:56:54;6.22;;;3.58;;
80127;SDS011;69440;52.118;5.408;2023-05-10T09:59:21;6.90;;;3.58;;
80127;SDS011;69440;52.118;5.408;2023-05-10T10:01:50;6.00;;;3.75;;
80127;SDS011;69440;52.118;5.408;2023-05-10T10:04:17;6.38;;;4.28;;
80127;SDS011;69440;52.118;5.408;2023-05-10T10:06:44;8.48;;;4.43;;
80127;SDS011;69440;52.118;5.408;2023-05-10T10:09:10;8.02;;;4.03;;
80127;SDS011;69440;52.118;5.408;2023-05-10T10:11:37;7.85;;;4.57;;
80127;SDS011;69440;52.118;5.408;2023-05-10T10:14:05;8.45;;;4.35;;
80127;SDS011;69440;52.118;5.408;2023-05-10T10:16:31;6.38;;;3.90;;
80127;SDS011;69440;52.118;5.408;2023-05-10T10:18:58;8.45;;;4.60;;
80127;SDS011;69440;52.118;5.408;2023-05-10T10:21:25;9.73;;;4.78;;
80127;SDS011;69440;52.118;5.408;2023-05-10T10:23:51;7.63;;;4.25;;
80127;SDS011;69440;52.118;5.408;2023-05-10T10:26:19;8.20;;;4.82;;
80127;SDS011;69440;52.118;5.408;2023-05-10T10:28:49;10.52;;;5.70;;
80127;SDS011;69440;52.118;5.408;2023-05-10T10:31:37;9.88;;;5.70;;
80127;SDS011;69440;52.118;5.408;2023-05-10T10:34:17;8.88;;;5.00;;
80127;SDS011;69440;52.118;5.408;2023-05-10T10:36:52;8.85;;;4.85;;
80127;SDS011;69440;52.118;5.408;2023-05-10T10:39:20;8.88;;;5.40;;
80127;SDS011;69440;52.118;5.408;2023-05-10T10:41:50;11.18;;;5.32;;
80127;SDS011;69440;52.118;5.408;2023-05-10T10:46:59;8.20;;;5.22;;
80127;SDS011;69440;52.118;5.408;2023-05-10T10:55:01;8.93;;;5.05;;
80127;SDS011;69440;52.118;5.408;2023-05-10T10:57:28;7.97;;;4.25;;
80127;SDS011;69440;52.118;5.408;2023-05-10T11:02:58;10.00;;;4.97;;
80127;SDS011;69440;52.118;5.408;2023-05-10T11:08:14;9.02;;;4.65;;
80127;SDS011;69440;52.118;5.408;2023-05-10T11:10:52;7.55;;;4.72;;
80127;SDS011;69440;52.118;5.408;2023-05-10T11:13:38;9.13;;;4.63;;
80127;SDS011;69440;52.118;5.408;2023-05-10T11:16:19;10.35;;;4.72;;
80127;SDS011;69440;52.118;5.408;2023-05-10T11:19:03;7.65;;;4.93;;
80127;SDS011;69440;52.118;5.408;2023-05-10T11:21:33;7.85;;;4.90;;
80127;SDS011;69440;52.118;5.408;2023-05-10T11:24:13;8.13;;;4.25;;
80127;SDS011;69440;52.118;5.408;2023-05-10T11:26:43;7.78;;;4.55;;
80127;SDS011;69440;52.118;5.408;2023-05-10T11:29:10;7.20;;;4.70;;
80127;SDS011;69440;52.118;5.408;2023-05-10T11:31:45;8.27;;;4.40;;
80127;SDS011;69440;52.118;5.408;2023-05-10T11:34:22;7.35;;;4.50;;
80127;SDS011;69440;52.118;5.408;2023-05-10T11:36:51;6.85;;;3.90;;
80127;SDS011;69440;52.118;5.408;2023-05-10T11:39:20;7.13;;;4.07;;
80127;SDS011;69440;52.118;5.408;2023-05-10T11:41:48;6.32;;;3.72;;
80127;SDS011;69440;52.118;5.408;2023-05-10T11:44:15;7.82;;;4.38;;
80127;SDS011;69440;52.118;5.408;2023-05-10T11:46:42;8.15;;;4.68;;
80127;SDS011;69440;52.118;5.408;2023-05-10T11:49:09;6.72;;;4.32;;
80127;SDS011;69440;52.118;5.408;2023-05-10T11:51:36;6.32;;;3.55;;
80127;SDS011;69440;52.118;5.408;2023-05-10T11:54:06;6.18;;;3.55;;
80127;SDS011;69440;52.118;5.408;2023-05-10T11:56:35;4.82;;;3.17;;
80127;SDS011;69440;52.118;5.408;2023-05-10T11:59:03;7.13;;;3.70;;
80127;SDS011;69440;52.118;5.408;2023-05-10T12:01:30;6.68;;;3.40;;
80127;SDS011;69440;52.118;5.408;2023-05-10T12:03:57;7.25;;;3.50;;
80127;SDS011;69440;52.118;5.408;2023-05-10T12:06:27;6.07;;;3.38;;
80127;SDS011;69440;52.118;5.408;2023-05-10T12:08:57;6.50;;;3.35;;
80127;SDS011;69440;52.118;5.408;2023-05-10T12:11:25;6.22;;;3.13;;
80127;SDS011;69440;52.118;5.408;2023-05-10T12:13:53;5.90;;;2.90;;
80127;SDS011;69440;52.118;5.408;2023-05-10T12:16:21;4.32;;;2.50;;
80127;SDS011;69440;52.118;5.408;2023-05-10T12:18:50;4.32;;;2.80;;
80127;SDS011;69440;52.118;5.408;2023-05-10T12:21:18;5.25;;;2.92;;
80127;SDS011;69440;52.118;5.408;2023-05-10T12:23:46;3.80;;;2.38;;
80127;SDS011;69440;52.118;5.408;2023-05-10T12:26:15;5.57;;;2.70;;
80127;SDS011;69440;52.118;5.408;2023-05-10T12:28:42;5.18;;;2.88;;
80127;SDS011;69440;52.118;5.408;2023-05-10T12:31:08;7.38;;;3.35;;
80127;SDS011;69440;52.118;5.408;2023-05-10T12:33:42;4.60;;;2.70;;
80127;SDS011;69440;52.118;5.408;2023-05-10T12:36:09;6.93;;;3.40;;
80127;SDS011;69440;52.118;5.408;2023-05-10T12:38:38;7.40;;;2.95;;
80127;SDS011;69440;52.118;5.408;2023-05-10T12:41:09;5.72;;;2.90;;
80127;SDS011;69440;52.118;5.408;2023-05-10T12:43:37;3.95;;;2.80;;
80127;SDS011;69440;52.118;5.408;2023-05-10T12:46:05;4.63;;;2.63;;
80127;SDS011;69440;52.118;5.408;2023-05-10T12:48:33;6.72;;;2.47;;
80127;SDS011;69440;52.118;5.408;2023-05-10T12:51:01;6.75;;;2.50;;
80127;SDS011;69440;52.118;5.408;2023-05-10T12:53:28;5.05;;;2.80;;
80127;SDS011;69440;52.118;5.408;2023-05-10T12:55:55;3.97;;;2.45;;
80127;SDS011;69440;52.118;5.408;2023-05-10T12:58:22;4.22;;;2.30;;
80127;SDS011;69440;52.118;5.408;2023-05-10T13:01:01;3.50;;;2.35;;
80127;SDS011;69440;52.118;5.408;2023-05-10T13:03:28;4.28;;;2.25;;
80127;SDS011;69440;52.118;5.408;2023-05-10T13:05:54;4.00;;;2.10;;
80127;SDS011;69440;52.118;5.408;2023-05-10T13:08:21;3.03;;;2.10;;
80127;SDS011;69440;52.118;5.408;2023-05-10T13:10:47;4.63;;;2.15;;
80127;SDS011;69440;52.118;5.408;2023-05-10T13:13:15;6.88;;;3.28;;
80127;SDS011;69440;52.118;5.408;2023-05-10T13:15:41;6.25;;;3.90;;
80127;SDS011;69440;52.118;5.408;2023-05-10T13:18:08;5.47;;;3.67;;
80127;SDS011;69440;52.118;5.408;2023-05-10T13:20:34;5.80;;;3.42;;
80127;SDS011;69440;52.118;5.408;2023-05-10T13:23:01;6.88;;;4.40;;
80127;SDS011;69440;52.118;5.408;2023-05-10T13:25:28;5.95;;;4.30;;
80127;SDS011;69440;52.118;5.408;2023-05-10T13:27:55;8.38;;;4.32;;
80127;SDS011;69440;52.118;5.408;2023-05-10T13:30:21;8.68;;;4.30;;
80127;SDS011;69440;52.118;5.408;2023-05-10T13:32:48;6.05;;;3.50;;
80127;SDS011;69440;52.118;5.408;2023-05-10T13:35:14;10.82;;;3.53;;
80127;SDS011;69440;52.118;5.408;2023-05-10T13:37:41;9.02;;;3.67;;
80127;SDS011;69440;52.118;5.408;2023-05-10T13:40:07;9.07;;;3.80;;
80127;SDS011;69440;52.118;5.408;2023-05-10T13:42:34;9.40;;;4.97;;
80127;SDS011;69440;52.118;5.408;2023-05-10T13:45:01;8.50;;;4.18;;
80127;SDS011;69440;52.118;5.408;2023-05-10T13:47:30;8.73;;;4.03;;
80127;SDS011;69440;52.118;5.408;2023-05-10T13:49:57;7.18;;;3.80;;
80127;SDS011;69440;52.118;5.408;2023-05-10T13:52:23;9.30;;;4.80;;
80127;SDS011;69440;52.118;5.408;2023-05-10T13:54:50;9.55;;;4.72;;
80127;SDS011;69440;52.118;5.408;2023-05-10T13:57:18;9.57;;;4.80;;
80127;SDS011;69440;52.118;5.408;2023-05-10T13:59:44;11.77;;;5.50;;
80127;SDS011;69440;52.118;5.408;2023-05-10T14:02:11;11.18;;;4.80;;
80127;SDS011;69440;52.118;5.408;2023-05-10T14:04:39;9.52;;;4.88;;
80127;SDS011;69440;52.118;5.408;2023-05-10T14:07:05;11.63;;;5.18;;
80127;SDS011;69440;52.118;5.408;2023-05-10T14:09:31;13.00;;;4.93;;
80127;SDS011;69440;52.118;5.408;2023-05-10T14:11:58;9.90;;;4.68;;
80127;SDS011;69440;52.118;5.408;2023-05-10T14:14:24;11.30;;;4.70;;
80127;SDS011;69440;52.118;5.408;2023-05-10T14:16:51;9.90;;;5.28;;
80127;SDS011;69440;52.118;5.408;2023-05-10T14:19:18;10.15;;;4.85;;
80127;SDS011;69440;52.118;5.408;2023-05-10T14:21:44;9.88;;;4.57;;
80127;SDS011;69440;52.118;5.408;2023-05-10T14:24:11;10.95;;;4.78;;
80127;SDS011;69440;52.118;5.408;2023-05-10T14:26:37;8.20;;;4.20;;
80127;SDS011;69440;52.118;5.408;2023-05-10T14:29:04;9.80;;;5.28;;
80127;SDS011;69440;52.118;5.408;2023-05-10T14:31:30;9.50;;;4.60;;
80127;SDS011;69440;52.118;5.408;2023-05-10T14:33:57;11.32;;;4.63;;
80127;SDS011;69440;52.118;5.408;2023-05-10T14:36:23;11.38;;;4.97;;
80127;SDS011;69440;52.118;5.408;2023-05-10T14:38:50;10.07;;;5.70;;
80127;SDS011;69440;52.118;5.408;2023-05-10T14:41:17;11.32;;;5.10;;
80127;SDS011;69440;52.118;5.408;2023-05-10T14:43:43;11.02;;;5.28;;
80127;SDS011;69440;52.118;5.408;2023-05-10T14:46:10;8.88;;;4.78;;
80127;SDS011;69440;52.118;5.408;2023-05-10T14:48:37;12.07;;;5.65;;
80127;SDS011;69440;52.118;5.408;2023-05-10T14:51:03;12.25;;;5.85;;
80127;SDS011;69440;52.118;5.408;2023-05-10T14:53:29;11.75;;;6.07;;
80127;SDS011;69440;52.118;5.408;2023-05-10T14:55:56;10.13;;;5.50;;
80127;SDS011;69440;52.118;5.408;2023-05-10T14:58:23;13.45;;;6.10;;
80127;SDS011;69440;52.118;5.408;2023-05-10T15:00:49;12.07;;;5.75;;
80127;SDS011;69440;52.118;5.408;2023-05-10T15:03:16;14.30;;;6.38;;
80127;SDS011;69440;52.118;5.408;2023-05-10T15:05:43;14.85;;;6.50;;
80127;SDS011;69440;52.118;5.408;2023-05-10T15:08:10;13.93;;;6.20;;
80127;SDS011;69440;52.118;5.408;2023-05-10T15:10:38;12.02;;;5.63;;
80127;SDS011;69440;52.118;5.408;2023-05-10T15:13:05;11.13;;;5.97;;